Time;durP1;ratioP1;P1;durP2;ratioP2;P2;SDS_P1;SDS_P2;PMS_P1;PMS_P2;Temp;Humidity;BMP_temperature;BMP_pressure;BME280_temperature;BME280_humidity;BME280_pressure;Samples;Min_cycle;Max_cycle;Signal;HPM_P1;HPM_P2
2022/05/23 00:00:55;;;;;;;5.93;3.50;;;14.20;99.90;;;;;;5135601;27;19919;-70
2022/05/23 00:03:21;;;;;;;4.90;3.08;;;14.20;99.90;;;;;;5135967;27;20133;-71
2022/05/23 00:05:47;;;;;;;10.65;4.45;;;14.10;99.90;;;;;;5135766;27;20054;-70
2022/05/23 00:08:13;;;;;;;6.70;3.70;;;14.10;99.90;;;;;;5117405;27;20118;-71
2022/05/23 00:10:39;;;;;;;3.95;3.45;;;14.10;99.90;;;;;;5117490;27;20051;-72
2022/05/23 00:13:06;;;;;;;5.53;4.18;;;14.10;99.90;;;;;;5135597;27;20090;-72
2022/05/23 00:15:32;;;;;;;5.18;3.85;;;14.00;99.90;;;;;;5135436;27;20054;-73
2022/05/23 00:17:58;;;;;;;5.95;4.10;;;14.00;99.90;;;;;;5135691;27;20127;-72
2022/05/23 00:20:26;;;;;;;5.25;4.38;;;14.00;99.90;;;;;;5117445;27;20125;-70
2022/05/23 00:22:52;;;;;;;6.68;4.22;;;14.00;99.90;;;;;;5135213;27;20483;-70
2022/05/23 00:25:18;;;;;;;5.70;4.45;;;13.90;99.90;;;;;;5135299;27;20046;-71
2022/05/23 00:27:45;;;;;;;6.43;4.90;;;13.90;99.90;;;;;;5135207;27;20043;-71
2022/05/23 00:30:18;;;;;;;5.57;4.30;;;13.90;99.90;;;;;;5135166;27;20051;-70
2022/05/23 00:35:28;;;;;;;5.35;4.22;;;13.80;99.90;;;;;;5117003;27;20058;-69
2022/05/23 00:37:56;;;;;;;8.02;4.35;;;13.80;99.90;;;;;;5135111;27;20047;-73
2022/05/23 00:40:44;;;;;;;5.03;3.78;;;13.80;99.90;;;;;;5134726;27;20078;-72
2022/05/23 00:43:26;;;;;;;8.48;4.93;;;13.70;99.90;;;;;;5134831;27;20047;-69
2022/05/23 00:46:00;;;;;;;5.95;5.05;;;13.80;99.90;;;;;;5135013;27;20047;-69
2022/05/23 00:48:28;;;;;;;6.03;4.70;;;13.70;99.90;;;;;;5134775;27;20572;-69
2022/05/23 00:51:03;;;;;;;7.32;4.53;;;13.70;99.90;;;;;;5116629;27;20046;-71
2022/05/23 00:53:38;;;;;;;7.55;4.70;;;13.90;99.90;;;;;;5116630;27;20611;-70
2022/05/23 00:56:10;;;;;;;6.38;3.92;;;13.70;99.90;;;;;;5134807;27;20125;-70
2022/05/23 00:58:40;;;;;;;9.95;4.40;;;13.70;99.90;;;;;;5134784;27;20035;-71
2022/05/23 01:01:11;;;;;;;6.05;3.97;;;13.60;99.90;;;;;;5134736;27;20131;-70
2022/05/23 01:03:38;;;;;;;6.50;3.97;;;13.70;99.90;;;;;;5098587;27;20108;-69
2022/05/23 01:06:07;;;;;;;;;;;13.60;99.90;;;;;;5135047;27;20043;-72
2022/05/23 01:08:38;;;;;;;6.13;3.55;;;13.60;99.90;;;;;;5134700;27;19987;-69
2022/05/23 01:11:04;;;;;;;6.15;4.43;;;13.60;99.90;;;;;;5134492;27;20051;-71
2022/05/23 01:13:30;;;;;;;6.95;3.83;;;13.60;99.90;;;;;;5134088;27;20096;-70
2022/05/23 01:15:56;;;;;;;;;;;13.60;99.90;;;;;;5099897;27;20045;-72
2022/05/23 01:18:22;;;;;;;4.97;3.33;;;12.60;99.90;;;;;;5134359;27;19919;-70
2022/05/23 01:20:56;;;;;;;4.55;3.60;;;13.50;99.90;;;;;;5134329;27;20082;-72
2022/05/23 01:23:40;;;;;;;4.35;2.92;;;13.50;99.90;;;;;;5134517;27;20046;-73
2022/05/23 01:26:07;;;;;;;7.97;3.10;;;13.50;99.90;;;;;;5116229;27;20054;-69
2022/05/23 01:28:38;;;;;;;;;;;13.50;99.90;;;;;;5134651;27;20054;-69
2022/05/23 01:31:04;;;;;;;5.72;3.20;;;13.40;99.90;;;;;;5116082;28;19920;-69
2022/05/23 01:33:31;;;;;;;5.47;3.10;;;13.40;99.90;;;;;;5134140;27;20043;-70
2022/05/23 01:35:57;;;;;;;4.90;3.33;;;13.40;99.90;;;;;;5134187;27;20506;-69
2022/05/23 01:38:27;;;;;;;5.32;2.65;;;13.40;99.90;;;;;;5134161;28;20047;-70
2022/05/23 01:40:57;;;;;;;5.80;3.05;;;13.40;99.90;;;;;;5134030;28;20143;-70
2022/05/23 01:43:25;;;;;;;4.78;2.72;;;13.40;99.90;;;;;;5134081;28;20499;-72
2022/05/23 01:45:51;;;;;;;3.65;3.00;;;13.40;99.90;;;;;;5134023;28;20054;-70
2022/05/23 01:48:17;;;;;;;7.63;3.00;;;13.40;99.90;;;;;;5115662;28;20074;-71
2022/05/23 01:50:43;;;;;;;6.30;3.50;;;13.40;99.90;;;;;;5134451;28;20057;-69
2022/05/23 01:53:08;;;;;;;6.10;3.45;;;13.30;99.90;;;;;;5116107;28;20460;-70
2022/05/23 01:55:36;;;;;;;5.32;2.88;;;13.90;99.90;;;;;;5134018;28;20039;-69
2022/05/23 01:58:02;;;;;;;6.72;2.58;;;13.30;99.90;;;;;;5134003;28;20039;-69
2022/05/23 02:03:12;;;;;;;7.57;2.95;;;13.30;99.90;;;;;;5134051;28;19926;-72
2022/05/23 02:05:38;;;;;;;7.35;3.15;;;13.20;99.90;;;;;;5127289;28;20047;-70
2022/05/23 02:08:04;;;;;;;5.10;2.40;;;13.20;99.90;;;;;;5132185;28;20515;-72
2022/05/23 02:10:30;;;;;;;6.47;2.80;;;13.20;99.90;;;;;;5115670;28;20395;-70
2022/05/23 02:12:59;;;;;;;4.30;2.55;;;13.20;99.90;;;;;;5133772;28;20176;-73
2022/05/23 02:15:25;;;;;;;5.18;2.10;;;13.20;99.90;;;;;;5133818;28;20148;-73
2022/05/23 02:17:51;;;;;;;4.53;2.60;;;13.70;99.90;;;;;;5133947;28;20039;-69
2022/05/23 02:20:17;;;;;;;6.78;2.60;;;13.20;99.90;;;;;;5115786;28;20108;-69
2022/05/23 02:22:43;;;;;;;5.70;2.28;;;13.20;99.90;;;;;;5133813;28;20035;-69
2022/05/23 02:25:09;;;;;;;;;;;13.20;99.90;;;;;;5134641;27;20051;-69
2022/05/23 02:27:35;;;;;;;7.32;2.80;;;13.30;99.90;;;;;;5137560;27;19919;-69
2022/05/23 02:30:00;;;;;;;5.93;2.80;;;13.70;99.90;;;;;;5137467;27;20096;-69
2022/05/23 02:32:26;;;;;;;4.95;2.17;;;13.10;99.90;;;;;;5137806;27;20085;-72
2022/05/23 02:34:52;;;;;;;6.03;2.92;;;13.10;99.90;;;;;;5137182;27;20054;-71
2022/05/23 02:37:18;;;;;;;4.68;2.50;;;13.10;99.90;;;;;;5129370;27;20066;-71
2022/05/23 02:39:44;;;;;;;4.07;2.58;;;13.10;99.90;;;;;;5118933;27;20127;-69
2022/05/23 02:42:10;;;;;;;5.03;2.20;;;13.10;99.90;;;;;;5137319;27;20077;-69
2022/05/23 02:44:36;;;;;;;5.65;2.70;;;13.10;99.90;;;;;;5118829;27;20091;-72
2022/05/23 02:47:02;;;;;;;4.13;2.83;;;13.40;99.90;;;;;;5137407;27;20046;-70
2022/05/23 02:49:28;;;;;;;7.85;2.55;;;13.10;99.90;;;;;;5137451;27;20043;-71
2022/05/23 02:51:53;;;;;;;5.13;3.65;;;13.10;99.90;;;;;;5137082;27;20104;-71
2022/05/23 02:54:20;;;;;;;3.60;2.58;;;13.10;99.90;;;;;;5119154;27;20053;-70
2022/05/23 02:56:45;;;;;;;3.25;2.35;;;13.10;99.90;;;;;;5136997;27;20050;-73
2022/05/23 02:59:11;;;;;;;4.65;2.50;;;13.00;99.90;;;;;;5136972;27;20039;-69
2022/05/23 03:03:01;;;;;;;7.05;2.53;;;13.10;99.90;;;;;;5136965;27;20402;-71
2022/05/23 03:04:24;;;;;;;7.35;2.92;;;13.10;99.90;;;;;;5137016;27;20047;-70
2022/05/23 03:06:50;;;;;;;6.95;3.60;;;13.10;99.90;;;;;;5136885;27;20039;-69
2022/05/23 03:09:15;;;;;;;4.25;2.42;;;13.10;99.90;;;;;;5118857;27;20039;-71
2022/05/23 03:11:41;;;;;;;6.65;2.47;;;13.00;99.90;;;;;;5136762;27;20043;-70
2022/05/23 03:14:06;;;;;;;3.70;2.67;;;13.10;99.90;;;;;;5136639;27;20453;-73
2022/05/23 03:16:32;;;;;;;7.70;2.75;;;13.10;99.90;;;;;;5136864;27;20047;-69
2022/05/23 03:18:58;;;;;;;7.63;2.83;;;13.10;99.90;;;;;;5136817;27;20043;-70
2022/05/23 03:27:00;;;;;;;6.55;3.05;;;13.10;99.90;;;;;;5136242;27;20148;-74
2022/05/23 03:29:28;;;;;;;5.95;2.88;;;13.10;99.90;;;;;;5136675;27;20092;-70
2022/05/23 03:31:53;;;;;;;3.15;2.50;;;13.40;99.90;;;;;;5118355;27;20043;-74
2022/05/23 03:34:19;;;;;;;4.32;3.10;;;13.10;99.90;;;;;;5136487;27;20054;-69
2022/05/23 03:36:45;;;;;;;4.93;2.90;;;13.10;99.90;;;;;;5135678;27;20031;-69
2022/05/23 03:39:11;;;;;;;6.25;3.30;;;13.10;99.90;;;;;;5136214;27;20210;-69
2022/05/23 03:41:38;;;;;;;6.15;3.97;;;13.20;99.90;;;;;;5136367;27;20137;-71
2022/05/23 03:44:07;;;;;;;7.05;3.08;;;13.10;99.90;;;;;;5117842;27;20564;-73
2022/05/23 03:46:34;;;;;;;7.18;3.40;;;13.00;99.90;;;;;;5136025;27;20479;-69
2022/05/23 03:49:01;;;;;;;6.63;3.53;;;13.10;99.90;;;;;;5136120;27;20162;-70
2022/05/23 03:51:27;;;;;;;3.75;3.03;;;13.10;99.90;;;;;;5117860;27;20051;-69
2022/05/23 03:53:53;;;;;;;9.00;3.65;;;13.10;99.90;;;;;;5135798;27;20061;-70
2022/05/23 03:56:19;;;;;;;7.30;3.80;;;13.10;99.90;;;;;;5117692;27;20122;-73
2022/05/23 03:58:45;;;;;;;4.18;2.83;;;13.10;99.90;;;;;;5117699;27;20057;-69
2022/05/23 04:01:17;;;;;;;6.05;2.92;;;13.10;99.90;;;;;;5135936;27;20045;-70
2022/05/23 04:03:43;;;;;;;5.97;3.45;;;13.20;99.90;;;;;;5135829;27;20058;-71
2022/05/23 04:06:09;;;;;;;6.72;3.63;;;13.10;99.90;;;;;;5127329;27;20044;-70
2022/05/23 04:08:35;;;;;;;6.28;3.30;;;13.20;99.90;;;;;;5135489;27;20045;-69
2022/05/23 04:11:02;;;;;;;7.28;3.45;;;13.20;99.90;;;;;;5135709;27;20039;-70
2022/05/23 04:13:28;;;;;;;7.22;3.65;;;13.20;99.90;;;;;;5135671;27;20039;-70
2022/05/23 04:15:55;;;;;;;5.90;3.92;;;13.20;99.90;;;;;;5135640;27;20047;-70
2022/05/23 04:18:20;;;;;;;;;;;13.20;99.90;;;;;;5135940;27;20039;-71
2022/05/23 04:20:46;;;;;;;5.53;3.45;;;13.20;99.90;;;;;;5135414;27;19964;-71
2022/05/23 04:23:12;;;;;;;6.95;3.58;;;13.20;99.90;;;;;;5135269;27;20176;-73
2022/05/23 04:25:40;;;;;;;6.28;3.10;;;13.20;99.90;;;;;;5135225;27;20448;-70
2022/05/23 04:28:06;;;;;;;5.82;3.55;;;13.20;99.90;;;;;;5135282;27;20039;-69
2022/05/23 04:30:31;;;;;;;6.93;3.90;;;13.20;99.90;;;;;;5100212;27;20059;-69
2022/05/23 04:35:41;;;;;;;6.80;4.35;;;13.80;99.90;;;;;;5116838;27;20490;-69
2022/05/23 04:38:07;;;;;;;6.45;4.03;;;13.20;99.90;;;;;;5135094;27;20050;-70
2022/05/23 04:40:33;;;;;;;7.50;4.22;;;13.20;99.90;;;;;;5116505;27;20050;-70
2022/05/23 04:42:58;;;;;;;5.70;4.15;;;13.60;99.90;;;;;;5117012;27;20146;-70
2022/05/23 04:45:24;;;;;;;5.95;3.67;;;13.30;99.90;;;;;;5135043;27;20047;-73
2022/05/23 04:50:34;;;;;;;7.13;4.40;;;13.30;99.90;;;;;;5134861;27;20104;-69
2022/05/23 04:53:01;;;;;;;6.32;3.72;;;13.30;99.90;;;;;;5134760;27;20055;-70
2022/05/23 04:55:27;;;;;;;5.60;4.43;;;13.40;99.90;;;;;;5116526;27;20051;-69
2022/05/23 04:57:53;;;;;;;5.50;4.28;;;13.40;99.90;;;;;;5116744;27;20065;-69
2022/05/23 05:00:21;;;;;;;8.68;4.20;;;13.40;99.90;;;;;;5116680;27;20051;-69
2022/05/23 05:02:48;;;;;;;9.15;4.28;;;13.40;99.90;;;;;;5134741;27;20409;-69
2022/05/23 05:05:15;;;;;;;10.55;4.63;;;13.40;99.90;;;;;;5134424;27;20445;-74
2022/05/23 05:07:41;;;;;;;7.50;4.50;;;13.40;99.90;;;;;;5116454;27;20039;-70
2022/05/23 05:10:07;;;;;;;7.10;4.78;;;13.60;99.90;;;;;;5134690;27;20043;-72
2022/05/23 05:12:33;;;;;;;;;;;13.50;99.90;;;;;;5116683;27;20051;-70
2022/05/23 05:14:59;;;;;;;7.15;4.38;;;13.50;99.90;;;;;;5134440;27;19927;-72
2022/05/23 05:17:26;;;;;;;8.93;5.15;;;13.50;99.90;;;;;;5134421;27;20054;-72
2022/05/23 05:19:52;;;;;;;8.82;4.43;;;13.50;99.90;;;;;;5134404;27;20051;-70
2022/05/23 05:22:17;;;;;;;7.68;4.18;;;13.50;99.90;;;;;;5134281;27;20406;-72
2022/05/23 05:24:43;;;;;;;6.63;5.07;;;13.50;99.90;;;;;;5134426;27;20043;-73
2022/05/23 05:27:10;;;;;;;7.63;5.10;;;13.90;99.90;;;;;;5134313;27;20110;-71
2022/05/23 05:29:36;;;;;;;7.45;4.50;;;13.60;99.90;;;;;;5134358;27;20043;-70
2022/05/23 05:32:17;;;;;;;7.30;4.80;;;13.60;99.90;;;;;;5134297;27;20075;-70
2022/05/23 05:34:55;;;;;;;7.38;4.65;;;13.60;99.90;;;;;;5134093;27;20078;-70
2022/05/23 05:37:27;;;;;;;7.47;4.95;;;13.80;99.90;;;;;;5134328;27;20451;-69
2022/05/23 05:39:55;;;;;;;6.22;4.30;;;13.70;99.90;;;;;;5134080;28;20056;-72
2022/05/23 05:42:31;;;;;;;6.60;4.65;;;13.70;99.90;;;;;;5134000;28;20522;-69
2022/05/23 05:45:07;;;;;;;8.15;5.00;;;13.80;99.90;;;;;;5134110;28;20046;-73
2022/05/23 05:47:35;;;;;;;6.40;4.93;;;13.70;99.90;;;;;;5134123;28;20049;-70
2022/05/23 05:50:09;;;;;;;6.93;5.32;;;13.80;99.90;;;;;;5134185;28;20054;-68
2022/05/23 05:52:35;;;;;;;7.68;4.88;;;13.80;99.90;;;;;;5134112;28;20126;-69
2022/05/23 05:55:03;;;;;;;9.32;5.45;;;13.80;99.90;;;;;;5133957;28;20039;-70
2022/05/23 05:57:29;;;;;;;10.38;4.90;;;13.90;99.90;;;;;;5115646;28;20074;-73
2022/05/23 05:59:55;;;;;;;;;;;13.90;99.90;;;;;;5136163;27;20047;-70
2022/05/23 06:02:20;;;;;;;7.70;5.40;;;13.90;99.90;;;;;;5138269;27;19927;-72
2022/05/23 06:04:46;;;;;;;7.53;5.00;;;13.90;99.90;;;;;;5138264;27;20066;-70
2022/05/23 06:12:54;;;;;;;6.38;4.75;;;14.10;99.90;;;;;;5138108;27;20101;-69
2022/05/23 06:15:20;;;;;;;7.78;5.05;;;14.10;99.90;;;;;;5138075;27;20043;-70
2022/05/23 06:17:45;;;;;;;7.35;5.20;;;14.10;99.90;;;;;;5137884;27;20441;-73
2022/05/23 06:20:13;;;;;;;6.00;4.85;;;14.50;99.90;;;;;;5137884;27;20093;-70
2022/05/23 06:22:39;;;;;;;7.32;5.07;;;14.20;99.90;;;;;;5137758;27;20047;-70
2022/05/23 06:25:05;;;;;;;11.63;6.35;;;14.20;99.90;;;;;;5119535;27;20043;-72
2022/05/23 06:27:31;;;;;;;6.93;5.38;;;14.30;99.90;;;;;;5118044;27;20115;-70
2022/05/23 06:29:57;;;;;;;15.45;5.90;;;14.30;99.90;;;;;;5137751;27;20039;-73
2022/05/23 06:32:22;;;;;;;7.93;5.53;;;14.40;99.90;;;;;;5119124;27;20495;-74
2022/05/23 06:34:48;;;;;;;9.75;6.05;;;14.50;99.90;;;;;;5118955;27;20050;-69
2022/05/23 06:37:14;;;;;;;9.23;6.15;;;14.50;99.90;;;;;;5118232;27;20059;-71
2022/05/23 06:39:40;;;;;;;6.38;5.03;;;14.60;99.90;;;;;;5137224;27;20051;-72
2022/05/23 06:42:06;;;;;;;9.13;5.70;;;14.70;99.90;;;;;;5137170;27;20181;-70
2022/05/23 06:44:32;;;;;;;8.32;5.95;;;14.80;99.90;;;;;;5119471;27;20100;-70
2022/05/23 06:47:02;;;;;;;6.95;5.85;;;14.90;99.90;;;;;;5119196;27;20479;-70
2022/05/23 06:49:28;;;;;;;8.52;5.75;;;15.00;99.90;;;;;;5137136;27;20517;-70
2022/05/23 06:51:54;;;;;;;10.27;6.53;;;15.10;99.90;;;;;;5137272;27;20043;-71
2022/05/23 06:54:20;;;;;;;7.78;5.32;;;15.20;99.90;;;;;;5137084;27;20069;-70
2022/05/23 06:56:48;;;;;;;6.85;6.07;;;15.20;99.90;;;;;;5136694;27;20108;-70
2022/05/23 06:59:15;;;;;;;5.47;4.75;;;15.30;99.90;;;;;;5118790;27;20078;-69
2022/05/23 07:01:42;;;;;;;8.80;5.22;;;15.40;99.90;;;;;;5118744;27;20039;-72
2022/05/23 07:04:09;;;;;;;8.43;5.22;;;15.50;99.90;;;;;;5136693;27;20564;-70
2022/05/23 07:12:20;;;;;;;12.23;5.82;;;15.70;99.90;;;;;;5120383;27;20047;-70
2022/05/23 07:14:47;;;;;;;8.48;5.72;;;15.80;99.90;;;;;;5118682;27;20099;-69
2022/05/23 07:17:14;;;;;;;8.32;5.50;;;15.90;99.90;;;;;;5136613;27;20114;-71
2022/05/23 07:19:41;;;;;;;10.43;5.82;;;16.00;99.90;;;;;;5118363;27;20051;-71
2022/05/23 07:22:07;;;;;;;8.93;6.13;;;16.00;99.90;;;;;;5136542;27;20090;-72
2022/05/23 07:24:34;;;;;;;;;;;16.10;99.90;;;;;;5137105;27;20418;-70
2022/05/23 07:27:02;;;;;;;7.70;6.13;;;16.20;99.90;;;;;;5136409;27;19919;-71
2022/05/23 07:29:28;;;;;;;7.05;5.55;;;16.20;99.90;;;;;;5136456;27;20058;-76
2022/05/23 07:31:55;;;;;;;8.63;5.70;;;16.30;99.90;;;;;;5136374;27;20398;-74
2022/05/23 07:34:21;;;;;;;7.95;4.90;;;16.40;99.90;;;;;;5136201;27;20453;-68
2022/05/23 07:36:48;;;;;;;8.88;5.82;;;16.50;99.90;;;;;;5117519;27;20104;-69
2022/05/23 07:39:15;;;;;;;13.65;5.50;;;16.60;99.90;;;;;;5112519;28;20467;-71
2022/05/23 07:41:42;;;;;;;8.82;4.95;;;16.60;99.90;;;;;;5115642;28;20113;-72
2022/05/23 07:44:12;;;;;;;8.25;5.15;;;16.70;99.90;;;;;;5115662;28;20044;-72
2022/05/23 07:46:40;;;;;;;6.85;5.53;;;16.80;99.90;;;;;;5115487;28;20092;-71
2022/05/23 07:49:06;;;;;;;8.00;5.05;;;16.80;99.90;;;;;;5115413;28;20039;-71
2022/05/23 07:51:32;;;;;;;11.35;4.78;;;17.00;99.90;;;;;;5114616;28;20058;-69
2022/05/23 08:02:12;;;;;;;9.48;5.28;;;17.30;99.90;;;;;;5114409;28;20058;-73
2022/05/23 08:04:38;;;;;;;8.70;5.72;;;17.40;99.90;;;;;;5115079;28;20039;-70
2022/05/23 08:07:07;;;;;;;9.88;5.25;;;17.40;99.90;;;;;;5114869;28;20476;-71
2022/05/23 08:09:33;;;;;;;8.73;5.55;;;17.40;99.90;;;;;;5115232;28;20054;-70
2022/05/23 08:12:00;;;;;;;10.25;5.32;;;17.50;99.90;;;;;;5114913;28;20412;-70
2022/05/23 08:14:26;;;;;;;7.40;4.20;;;17.50;99.90;;;;;;5113686;28;20051;-70
2022/05/23 08:16:52;;;;;;;;;;;17.50;99.90;;;;;;5114542;28;20048;-76
2022/05/23 08:19:19;;;;;;;7.53;4.90;;;17.60;99.90;;;;;;5114172;28;19920;-73
2022/05/23 08:21:51;;;;;;;8.25;5.72;;;17.60;99.90;;;;;;5114786;28;20126;-71
2022/05/23 08:24:17;;;;;;;7.78;4.85;;;17.60;99.90;;;;;;5114865;28;20044;-70
2022/05/23 08:26:43;;;;;;;8.75;5.35;;;17.70;99.90;;;;;;5112845;28;20583;-70
2022/05/23 08:29:09;;;;;;;;;;;17.70;99.90;;;;;;5115083;28;20104;-70
2022/05/23 08:31:36;;;;;;;8.80;4.57;;;17.80;99.90;;;;;;5114945;28;20283;-71
2022/05/23 08:34:02;;;;;;;5.30;4.13;;;17.80;99.90;;;;;;5114572;28;20052;-70
2022/05/23 08:36:29;;;;;;;8.40;4.70;;;17.90;99.90;;;;;;5114623;28;20124;-70
2022/05/23 08:38:55;;;;;;;8.18;5.18;;;18.00;99.90;;;;;;5121037;27;20055;-70
2022/05/23 08:41:41;;;;;;;;;;;18.10;99.90;;;;;;5135227;27;20047;-70
2022/05/23 08:44:10;;;;;;;11.93;4.95;;;18.50;99.90;;;;;;5135123;27;20010;-70
2022/05/23 08:47:05;;;;;;;10.18;5.57;;;18.30;99.90;;;;;;5134929;27;20142;-70
2022/05/23 08:49:48;;;;;;;8.63;5.85;;;18.40;99.90;;;;;;5134849;27;20051;-70
2022/05/23 08:52:20;;;;;;;9.90;5.97;;;18.50;99.90;;;;;;5116453;27;20058;-70
2022/05/23 08:55:04;;;;;;;13.93;6.35;;;18.60;99.90;;;;;;5134945;27;20092;-70
2022/05/23 08:57:29;;;;;;;11.93;6.00;;;18.70;99.90;;;;;;5134594;27;20047;-70
2022/05/23 09:00:02;;;;;;;6.32;4.90;;;18.80;99.90;;;;;;5134823;27;20050;-71
2022/05/23 09:02:40;;;;;;;10.55;6.22;;;18.90;99.90;;;;;;5116493;27;20141;-70
2022/05/23 09:05:15;;;;;;;11.18;6.10;;;19.00;99.90;;;;;;5134560;27;20085;-70
2022/05/23 09:07:59;;;;;;;8.65;5.22;;;19.00;99.90;;;;;;5134157;27;20047;-73
2022/05/23 09:10:47;;;;;;;9.48;4.97;;;19.10;99.90;;;;;;5116205;27;20078;-71
2022/05/23 09:13:16;;;;;;;8.32;5.05;;;19.20;99.90;;;;;;5134425;27;20126;-70
2022/05/23 09:15:43;;;;;;;7.35;4.65;;;19.20;99.90;;;;;;5129188;27;20047;-71
2022/05/23 09:18:17;;;;;;;8.82;5.05;;;19.30;99.90;;;;;;5127002;27;20046;-77
2022/05/23 09:20:50;;;;;;;10.52;5.57;;;19.40;99.90;;;;;;5123711;27;20415;-71
2022/05/23 09:23:36;;;;;;;8.43;5.18;;;19.50;99.90;;;;;;5134331;27;20062;-70
2022/05/23 09:26:05;;;;;;;6.32;4.30;;;19.60;99.90;;;;;;5134303;27;20055;-73
2022/05/23 09:28:37;;;;;;;7.38;5.00;;;19.70;99.90;;;;;;5115902;27;20448;-70
2022/05/23 09:31:25;;;;;;;5.70;3.67;;;19.70;99.90;;;;;;5134250;27;20130;-74
2022/05/23 09:33:51;;;;;;;;;;;19.80;99.90;;;;;;5116126;28;20108;-70
2022/05/23 09:36:26;;;;;;;7.07;4.85;;;19.90;99.90;;;;;;5134212;27;19925;-73
2022/05/23 09:39:05;;;;;;;8.20;4.53;;;20.10;99.90;;;;;;5115756;28;20062;-73
2022/05/23 09:49:52;;;;;;;14.23;4.60;;;20.50;99.90;;;;;;5134130;28;20058;-70
2022/05/23 09:52:32;;;;;;;8.60;5.10;;;20.50;99.90;;;;;;5133883;28;20043;-70
2022/05/23 09:55:10;;;;;;;9.77;3.92;;;20.60;99.90;;;;;;5133919;28;20082;-70
2022/05/23 09:57:40;;;;;;;5.60;4.43;;;20.70;99.90;;;;;;5133935;28;20046;-72
2022/05/23 10:00:09;;;;;;;4.35;3.78;;;20.80;99.90;;;;;;5133186;28;20074;-72
2022/05/23 10:02:38;;;;;;;9.45;4.53;;;20.90;99.90;;;;;;5115273;28;20059;-70
2022/05/23 10:05:27;;;;;;;9.30;4.13;;;21.00;99.90;;;;;;5113486;28;20483;-71
2022/05/23 10:07:55;;;;;;;7.30;3.72;;;21.00;99.90;;;;;;5112043;28;20096;-70
2022/05/23 10:10:32;;;;;;;6.25;3.42;;;21.00;99.90;;;;;;5133801;28;20404;-73
2022/05/23 10:13:46;;;;;;;4.55;3.13;;;21.10;99.90;;;;;;5115563;28;20059;-71
2022/05/23 10:16:15;;;;;;;5.82;3.80;;;21.20;99.90;;;;;;5111055;28;20098;-71
2022/05/23 10:19:02;;;;;;;9.77;3.53;;;21.20;99.90;;;;;;5133805;28;20122;-71
2022/05/23 10:21:43;;;;;;;5.97;2.58;;;21.20;99.90;;;;;;5133672;28;20472;-71
2022/05/23 10:24:18;;;;;;;5.45;2.97;;;21.20;99.90;;;;;;5114702;28;20065;-71
2022/05/23 10:27:00;;;;;;;11.20;3.70;;;21.20;99.90;;;;;;5133046;28;20047;-76
2022/05/23 10:29:39;;;;;;;6.22;3.00;;;21.20;99.90;;;;;;5133334;28;20082;-74
2022/05/23 10:32:09;;;;;;;7.38;3.33;;;21.20;99.90;;;;;;5133517;28;20122;-71
2022/05/23 10:34:41;;;;;;;5.82;3.35;;;21.30;99.90;;;;;;5133463;28;20047;-70
2022/05/23 10:37:12;;;;;;;3.17;2.25;;;21.30;99.90;;;;;;5133064;28;20123;-70
2022/05/23 10:42:43;;;;;;;11.10;3.25;;;21.40;99.90;;;;;;5133383;28;20047;-70
2022/05/23 10:45:30;;;;;;;4.85;2.95;;;21.40;99.90;;;;;;5133347;27;20051;-71
2022/05/23 10:48:10;;;;;;;5.88;3.00;;;21.50;99.90;;;;;;5136635;27;20043;-71
2022/05/23 10:50:55;;;;;;;6.43;2.80;;;21.50;99.90;;;;;;5137120;27;20051;-73
2022/05/23 10:54:08;;;;;;;5.78;2.75;;;21.60;99.90;;;;;;5118948;27;20506;-71
2022/05/23 10:56:55;;;;;;;7.82;3.13;;;21.70;99.90;;;;;;5033438;28;20056;-71
2022/05/23 10:59:53;;;;;;;7.22;2.75;;;21.70;99.90;;;;;;5033539;28;20062;-71
2022/05/23 11:02:21;;;;;;;;;;;21.80;99.90;;;;;;5033807;28;20054;-72
2022/05/23 11:04:54;;;;;;;5.55;2.55;;;21.80;99.90;;;;;;5017107;28;19971;-74
2022/05/23 11:07:49;;;;;;;5.13;3.20;;;21.80;99.90;;;;;;5016455;28;20053;-72
2022/05/23 11:10:21;;;;;;;4.40;2.85;;;21.90;99.90;;;;;;5015921;28;20497;-70
2022/05/23 11:12:54;;;;;;;6.07;2.80;;;21.90;99.90;;;;;;5030965;28;20051;-70
2022/05/23 11:15:38;;;;;;;3.67;2.22;;;21.90;99.90;;;;;;5016779;28;20041;-72
2022/05/23 11:18:03;;;;;;;8.52;2.78;;;21.90;99.90;;;;;;5033255;28;20115;-70
2022/05/23 11:20:40;;;;;;;3.28;2.30;;;22.00;99.90;;;;;;5033115;28;20445;-71
2022/05/23 11:23:27;;;;;;;4.68;2.70;;;22.00;99.90;;;;;;5032979;28;20452;-71
2022/05/23 11:26:06;;;;;;;5.80;3.38;;;22.00;99.90;;;;;;5032946;28;20458;-70
2022/05/23 11:34:32;;;;;;;4.45;2.35;;;22.10;99.90;;;;;;5136341;27;20139;-72
2022/05/23 11:40:01;;;;;;;5.05;2.63;;;22.10;99.90;;;;;;5136263;27;20055;-72
2022/05/23 11:42:40;;;;;;;4.25;2.30;;;22.20;99.90;;;;;;5135856;27;20059;-71
2022/05/23 11:47:52;;;;;;;4.88;2.08;;;22.20;99.90;;;;;;5135681;27;20050;-71
2022/05/23 11:50:31;;;;;;;4.03;1.75;;;22.20;99.90;;;;;;5135904;27;20047;-70
2022/05/23 11:53:17;;;;;;;3.53;1.80;;;22.30;99.90;;;;;;5135715;27;20043;-71
2022/05/23 11:55:52;;;;;;;4.63;2.00;;;22.40;99.90;;;;;;5135723;27;20414;-70
2022/05/23 11:58:38;;;;;;;6.18;2.40;;;22.40;99.90;;;;;;5135358;27;20079;-70
2022/05/23 12:01:14;;;;;;;3.67;1.80;;;22.40;99.90;;;;;;5135722;27;20050;-74
2022/05/23 12:03:55;;;;;;;3.85;2.33;;;22.50;99.90;;;;;;5117696;27;20050;-73
2022/05/23 12:06:23;;;;;;;6.28;1.80;;;22.50;99.90;;;;;;5135634;27;20047;-72
2022/05/23 12:09:13;;;;;;;5.78;2.35;;;22.50;99.90;;;;;;5135611;27;20039;-72
2022/05/23 12:11:45;;;;;;;8.07;2.33;;;22.50;99.90;;;;;;5135391;27;20129;-70
2022/05/23 12:14:16;;;;;;;5.47;2.20;;;22.60;99.90;;;;;;5135443;27;20101;-74
2022/05/23 12:17:05;;;;;;;8.25;2.65;;;22.60;99.90;;;;;;5135499;27;20039;-70
2022/05/23 12:19:40;;;;;;;4.75;2.15;;;22.70;99.90;;;;;;5135236;27;20450;-70
2022/05/23 12:22:25;;;;;;;5.22;2.42;;;22.70;99.90;;;;;;5134918;27;20498;-71
2022/05/23 12:25:09;;;;;;;6.38;2.33;;;22.70;99.90;;;;;;5135300;27;20072;-70
2022/05/23 12:28:03;;;;;;;5.18;2.35;;;22.70;99.90;;;;;;5135065;27;20046;-70
2022/05/23 12:30:34;;;;;;;7.68;2.42;;;22.70;99.90;;;;;;5117544;27;20047;-73
2022/05/23 12:33:00;;;;;;;4.03;2.00;;;22.70;99.90;;;;;;5135469;27;20047;-71
2022/05/23 12:35:34;;;;;;;;;;;22.70;99.90;;;;;;5135592;27;20050;-71
2022/05/23 12:38:13;;;;;;;7.07;2.30;;;22.70;99.90;;;;;;5117140;27;19923;-74
2022/05/23 12:41:04;;;;;;;3.92;2.60;;;22.80;99.90;;;;;;5135183;27;20043;-70
2022/05/23 12:44:09;;;;;;;2.80;2.20;;;22.90;99.90;;;;;;5134763;27;20058;-70
2022/05/23 12:46:48;;;;;;;5.68;2.25;;;22.90;99.90;;;;;;5031442;28;20054;-73
2022/05/23 12:49:33;;;;;;;5.35;2.35;;;22.90;99.90;;;;;;5031621;28;20049;-70
2022/05/23 12:52:11;;;;;;;9.85;2.33;;;23.00;99.90;;;;;;5013713;28;20418;-70
2022/05/23 12:54:46;;;;;;;16.67;3.20;;;23.00;99.90;;;;;;5031576;28;20045;-73
2022/05/23 12:57:53;;;;;;;4.50;2.05;;;23.00;99.90;;;;;;5031376;28;20167;-72
2022/05/23 13:00:46;;;;;;;6.38;2.53;;;23.00;99.90;;;;;;4953332;29;20059;-76
2022/05/23 13:03:56;;;;;;;4.80;1.92;;;22.90;99.90;;;;;;4953465;29;20063;-71
2022/05/23 13:06:41;;;;;;;6.43;2.70;;;23.00;99.90;;;;;;4896082;29;20522;-71
2022/05/23 13:09:36;;;;;;;4.95;1.92;;;23.00;99.90;;;;;;4879978;29;20088;-71
2022/05/23 13:12:08;;;;;;;6.68;2.22;;;22.90;99.90;;;;;;4896092;29;20067;-70
2022/05/23 13:14:58;;;;;;;5.10;2.40;;;22.90;99.90;;;;;;4895779;29;20052;-70
2022/05/23 13:17:41;;;;;;;8.40;2.20;;;22.90;99.90;;;;;;4895600;29;20056;-72
2022/05/23 13:23:17;;;;;;;7.05;2.75;;;22.80;99.90;;;;;;4930256;28;20094;-74
2022/05/23 13:25:46;;;;;;;6.15;2.00;;;22.80;99.90;;;;;;4972145;28;20102;-72
2022/05/23 13:28:15;;;;;;;4.53;2.55;;;22.70;99.90;;;;;;4966738;28;20063;-74
2022/05/23 13:30:46;;;;;;;5.15;2.50;;;22.70;99.90;;;;;;4953147;29;20508;-72
2022/05/23 13:33:16;;;;;;;2.85;2.20;;;22.70;99.90;;;;;;4939410;28;20051;-71
2022/05/23 13:35:45;;;;;;;4.80;2.53;;;22.70;99.90;;;;;;4960976;28;20518;-71
2022/05/23 13:38:26;;;;;;;5.10;2.67;;;22.70;99.90;;;;;;5029829;28;20052;-72
2022/05/23 13:40:56;;;;;;;4.93;2.50;;;22.60;99.90;;;;;;5043424;28;20510;-70
2022/05/23 13:43:33;;;;;;;5.05;2.17;;;22.60;99.90;;;;;;5133991;28;20045;-71
2022/05/23 13:46:09;;;;;;;5.70;2.30;;;22.50;99.90;;;;;;5115332;28;20483;-71
2022/05/23 13:48:45;;;;;;;12.05;2.40;;;22.50;99.90;;;;;;5134159;28;20043;-72
2022/05/23 13:51:22;;;;;;;5.18;2.33;;;22.50;99.90;;;;;;5134127;28;20423;-73
2022/05/23 13:54:06;;;;;;;5.85;2.53;;;22.50;99.90;;;;;;5115374;28;20473;-75
2022/05/23 13:56:36;;;;;;;5.18;2.63;;;22.40;99.90;;;;;;5133615;28;20051;-70
2022/05/23 13:59:09;;;;;;;5.22;2.20;;;22.40;99.90;;;;;;5133785;28;20536;-74
2022/05/23 14:01:47;;;;;;;6.28;2.50;;;22.30;99.90;;;;;;5115780;28;20051;-70
2022/05/23 14:04:18;;;;;;;5.30;2.53;;;22.30;99.90;;;;;;5133913;28;20058;-72
2022/05/23 14:07:00;;;;;;;3.97;2.13;;;22.30;99.90;;;;;;5133550;28;20043;-71
2022/05/23 14:09:28;;;;;;;5.60;2.30;;;22.30;99.90;;;;;;5133679;28;20051;-72
2022/05/23 14:12:03;;;;;;;5.20;2.05;;;22.30;99.90;;;;;;5132981;28;20097;-71
2022/05/23 14:14:35;;;;;;;6.90;2.95;;;22.20;99.90;;;;;;5133600;28;20054;-71